sensor_id;sensor_type;location;lat;lon;timestamp;temperature;humidity
15083;DHT22;7640;53.116;6.878;2023-05-27T00:01:22;9.90;99.90
15083;DHT22;7640;53.116;6.878;2023-05-27T00:03:52;9.90;99.90
15083;DHT22;7640;53.116;6.878;2023-05-27T00:06:21;9.90;99.90
15083;DHT22;7640;53.116;6.878;2023-05-27T00:08:49;9.90;99.90
15083;DHT22;7640;53.116;6.878;2023-05-27T00:11:18;9.90;99.90
15083;DHT22;7640;53.116;6.878;2023-05-27T00:13:47;9.80;99.90
15083;DHT22;7640;53.116;6.878;2023-05-27T00:16:15;9.80;99.90
15083;DHT22;7640;53.116;6.878;2023-05-27T00:18:44;9.80;99.90
15083;DHT22;7640;53.116;6.878;2023-05-27T00:21:15;9.80;99.90
15083;DHT22;7640;53.116;6.878;2023-05-27T00:23:45;9.70;99.90
15083;DHT22;7640;53.116;6.878;2023-05-27T00:26:14;9.70;99.90
15083;DHT22;7640;53.116;6.878;2023-05-27T00:28:44;9.70;99.90
15083;DHT22;7640;53.116;6.878;2023-05-27T00:31:12;9.70;99.90
15083;DHT22;7640;53.116;6.878;2023-05-27T00:33:41;9.70;99.90
15083;DHT22;7640;53.116;6.878;2023-05-27T00:36:10;9.60;99.90
15083;DHT22;7640;53.116;6.878;2023-05-27T00:38:40;9.60;99.90
15083;DHT22;7640;53.116;6.878;2023-05-27T00:41:10;9.60;99.90
15083;DHT22;7640;53.116;6.878;2023-05-27T00:43:39;9.60;99.90
15083;DHT22;7640;53.116;6.878;2023-05-27T00:46:08;9.50;99.90
15083;DHT22;7640;53.116;6.878;2023-05-27T00:48:37;9.50;99.90
15083;DHT22;7640;53.116;6.878;2023-05-27T00:51:06;9.50;99.90
15083;DHT22;7640;53.116;6.878;2023-05-27T00:53:38;9.50;99.90
15083;DHT22;7640;53.116;6.878;2023-05-27T00:56:09;9.50;99.90
15083;DHT22;7640;53.116;6.878;2023-05-27T00:58:39;9.40;99.90
15083;DHT22;7640;53.116;6.878;2023-05-27T01:01:08;9.40;99.90
15083;DHT22;7640;53.116;6.878;2023-05-27T01:03:37;9.40;99.90
15083;DHT22;7640;53.116;6.878;2023-05-27T01:06:15;9.40;99.90
15083;DHT22;7640;53.116;6.878;2023-05-27T01:08:59;9.40;99.90
15083;DHT22;7640;53.116;6.878;2023-05-27T01:11:39;9.40;99.90
15083;DHT22;7640;53.116;6.878;2023-05-27T01:14:12;9.30;99.90
15083;DHT22;7640;53.116;6.878;2023-05-27T01:16:43;9.30;99.90
15083;DHT22;7640;53.116;6.878;2023-05-27T01:19:13;9.30;99.90
15083;DHT22;7640;53.116;6.878;2023-05-27T01:21:48;9.30;99.90
15083;DHT22;7640;53.116;6.878;2023-05-27T01:24:19;9.30;99.90
15083;DHT22;7640;53.116;6.878;2023-05-27T01:26:49;9.20;99.90
15083;DHT22;7640;53.116;6.878;2023-05-27T01:29:17;9.20;99.90
15083;DHT22;7640;53.116;6.878;2023-05-27T01:31:51;9.20;99.90
15083;DHT22;7640;53.116;6.878;2023-05-27T01:34:30;9.20;99.90
15083;DHT22;7640;53.116;6.878;2023-05-27T01:37:07;9.20;99.90
15083;DHT22;7640;53.116;6.878;2023-05-27T01:39:39;9.20;99.90
15083;DHT22;7640;53.116;6.878;2023-05-27T01:42:09;9.10;99.90
15083;DHT22;7640;53.116;6.878;2023-05-27T01:44:38;9.10;99.90
15083;DHT22;7640;53.116;6.878;2023-05-27T01:47:07;9.10;99.90
15083;DHT22;7640;53.116;6.878;2023-05-27T01:49:37;9.10;99.90
15083;DHT22;7640;53.116;6.878;2023-05-27T01:52:05;9.10;99.90
15083;DHT22;7640;53.116;6.878;2023-05-27T01:54:35;9.10;99.90
15083;DHT22;7640;53.116;6.878;2023-05-27T01:57:06;9.10;99.90
15083;DHT22;7640;53.116;6.878;2023-05-27T01:59:35;9.20;99.90
15083;DHT22;7640;53.116;6.878;2023-05-27T02:02:03;9.30;99.90
15083;DHT22;7640;53.116;6.878;2023-05-27T02:04:32;9.30;99.90
15083;DHT22;7640;53.116;6.878;2023-05-27T02:07:00;9.40;99.90
15083;DHT22;7640;53.116;6.878;2023-05-27T02:09:30;9.50;99.90
15083;DHT22;7640;53.116;6.878;2023-05-27T02:11:58;9.60;99.90
15083;DHT22;7640;53.116;6.878;2023-05-27T02:14:29;9.60;99.90
15083;DHT22;7640;53.116;6.878;2023-05-27T02:16:58;9.70;99.90
15083;DHT22;7640;53.116;6.878;2023-05-27T02:19:27;9.70;99.90
15083;DHT22;7640;53.116;6.878;2023-05-27T02:21:56;9.70;99.90
15083;DHT22;7640;53.116;6.878;2023-05-27T02:24:24;9.70;99.90
15083;DHT22;7640;53.116;6.878;2023-05-27T02:26:53;9.70;99.90
15083;DHT22;7640;53.116;6.878;2023-05-27T02:29:21;9.60;99.90
15083;DHT22;7640;53.116;6.878;2023-05-27T02:31:51;9.60;99.90
15083;DHT22;7640;53.116;6.878;2023-05-27T02:34:20;9.60;99.90
15083;DHT22;7640;53.116;6.878;2023-05-27T02:36:48;9.50;99.90
15083;DHT22;7640;53.116;6.878;2023-05-27T02:39:17;9.50;99.90
15083;DHT22;7640;53.116;6.878;2023-05-27T02:41:46;9.50;99.90
15083;DHT22;7640;53.116;6.878;2023-05-27T02:44:14;9.50;99.90
15083;DHT22;7640;53.116;6.878;2023-05-27T02:46:43;9.60;99.90
15083;DHT22;7640;53.116;6.878;2023-05-27T02:49:13;9.60;99.90
15083;DHT22;7640;53.116;6.878;2023-05-27T02:51:42;9.70;99.90
15083;DHT22;7640;53.116;6.878;2023-05-27T02:54:10;9.70;99.90
15083;DHT22;7640;53.116;6.878;2023-05-27T02:56:40;9.80;99.90
15083;DHT22;7640;53.116;6.878;2023-05-27T02:59:08;9.80;99.90
15083;DHT22;7640;53.116;6.878;2023-05-27T03:01:36;9.70;99.90
15083;DHT22;7640;53.116;6.878;2023-05-27T03:04:05;9.70;99.90
15083;DHT22;7640;53.116;6.878;2023-05-27T03:06:35;9.70;99.90
15083;DHT22;7640;53.116;6.878;2023-05-27T03:09:04;9.70;99.90
15083;DHT22;7640;53.116;6.878;2023-05-27T03:11:34;9.70;99.90
15083;DHT22;7640;53.116;6.878;2023-05-27T03:14:02;9.70;99.90
15083;DHT22;7640;53.116;6.878;2023-05-27T03:16:31;9.70;99.90
15083;DHT22;7640;53.116;6.878;2023-05-27T03:18:59;9.80;99.90
15083;DHT22;7640;53.116;6.878;2023-05-27T03:21:29;9.80;99.90
15083;DHT22;7640;53.116;6.878;2023-05-27T03:24:00;9.90;99.90
15083;DHT22;7640;53.116;6.878;2023-05-27T03:26:28;9.90;99.90
15083;DHT22;7640;53.116;6.878;2023-05-27T03:28:57;10.00;99.90
15083;DHT22;7640;53.116;6.878;2023-05-27T03:31:26;10.00;99.90
15083;DHT22;7640;53.116;6.878;2023-05-27T03:33:54;10.00;99.90
15083;DHT22;7640;53.116;6.878;2023-05-27T03:36:23;10.00;99.90
15083;DHT22;7640;53.116;6.878;2023-05-27T03:38:51;10.00;99.90
15083;DHT22;7640;53.116;6.878;2023-05-27T03:41:22;9.90;99.90
15083;DHT22;7640;53.116;6.878;2023-05-27T03:43:50;9.90;99.90
15083;DHT22;7640;53.116;6.878;2023-05-27T03:46:18;9.90;99.90
15083;DHT22;7640;53.116;6.878;2023-05-27T03:48:47;9.90;99.90
15083;DHT22;7640;53.116;6.878;2023-05-27T03:51:15;9.90;99.90
15083;DHT22;7640;53.116;6.878;2023-05-27T03:53:44;9.90;99.90
15083;DHT22;7640;53.116;6.878;2023-05-27T03:56:13;9.80;99.90
15083;DHT22;7640;53.116;6.878;2023-05-27T03:58:43;9.80;99.90
15083;DHT22;7640;53.116;6.878;2023-05-27T04:01:12;9.80;99.90
15083;DHT22;7640;53.116;6.878;2023-05-27T04:03:41;9.80;99.90
15083;DHT22;7640;53.116;6.878;2023-05-27T04:06:10;9.80;99.90
15083;DHT22;7640;53.116;6.878;2023-05-27T04:08:39;9.80;99.90
15083;DHT22;7640;53.116;6.878;2023-05-27T04:11:11;9.80;99.90
15083;DHT22;7640;53.116;6.878;2023-05-27T04:13:40;9.80;99.90
15083;DHT22;7640;53.116;6.878;2023-05-27T04:16:12;9.90;99.90
15083;DHT22;7640;53.116;6.878;2023-05-27T04:18:42;9.90;99.90
15083;DHT22;7640;53.116;6.878;2023-05-27T04:21:16;10.00;99.90
15083;DHT22;7640;53.116;6.878;2023-05-27T04:23:44;10.10;99.90
15083;DHT22;7640;53.116;6.878;2023-05-27T04:26:13;10.10;99.90
15083;DHT22;7640;53.116;6.878;2023-05-27T04:28:43;10.20;99.90
15083;DHT22;7640;53.116;6.878;2023-05-27T04:31:13;10.30;99.90
15083;DHT22;7640;53.116;6.878;2023-05-27T04:33:44;10.40;99.90
15083;DHT22;7640;53.116;6.878;2023-05-27T04:36:13;10.40;99.90
15083;DHT22;7640;53.116;6.878;2023-05-27T04:38:44;10.50;99.90
15083;DHT22;7640;53.116;6.878;2023-05-27T04:41:13;10.60;99.90
15083;DHT22;7640;53.116;6.878;2023-05-27T04:43:43;10.60;99.90
15083;DHT22;7640;53.116;6.878;2023-05-27T04:46:12;10.70;99.90
15083;DHT22;7640;53.116;6.878;2023-05-27T04:48:41;10.80;99.90
15083;DHT22;7640;53.116;6.878;2023-05-27T04:51:11;10.90;99.90
15083;DHT22;7640;53.116;6.878;2023-05-27T04:53:42;11.00;99.90
15083;DHT22;7640;53.116;6.878;2023-05-27T04:56:11;11.10;99.90
15083;DHT22;7640;53.116;6.878;2023-05-27T04:58:44;11.20;99.90
15083;DHT22;7640;53.116;6.878;2023-05-27T05:01:13;11.30;99.90
15083;DHT22;7640;53.116;6.878;2023-05-27T05:03:45;11.40;99.90
15083;DHT22;7640;53.116;6.878;2023-05-27T05:06:20;11.60;99.90
15083;DHT22;7640;53.116;6.878;2023-05-27T05:08:49;11.70;99.90
15083;DHT22;7640;53.116;6.878;2023-05-27T05:11:18;11.80;99.90
15083;DHT22;7640;53.116;6.878;2023-05-27T05:13:49;12.00;99.90
15083;DHT22;7640;53.116;6.878;2023-05-27T05:16:18;12.00;99.90
15083;DHT22;7640;53.116;6.878;2023-05-27T05:18:46;12.10;99.90
15083;DHT22;7640;53.116;6.878;2023-05-27T05:21:14;12.10;99.90
15083;DHT22;7640;53.116;6.878;2023-05-27T05:23:43;12.20;99.90
15083;DHT22;7640;53.116;6.878;2023-05-27T05:26:12;12.20;99.90
15083;DHT22;7640;53.116;6.878;2023-05-27T05:28:40;12.30;99.90
15083;DHT22;7640;53.116;6.878;2023-05-27T05:31:10;12.20;99.90
15083;DHT22;7640;53.116;6.878;2023-05-27T05:33:39;12.20;99.90
15083;DHT22;7640;53.116;6.878;2023-05-27T05:36:08;12.20;99.90
15083;DHT22;7640;53.116;6.878;2023-05-27T05:38:37;12.20;99.90
15083;DHT22;7640;53.116;6.878;2023-05-27T05:41:05;12.20;99.90
15083;DHT22;7640;53.116;6.878;2023-05-27T05:43:34;12.20;99.90
15083;DHT22;7640;53.116;6.878;2023-05-27T05:46:02;12.20;99.90
15083;DHT22;7640;53.116;6.878;2023-05-27T05:48:32;12.30;99.90
15083;DHT22;7640;53.116;6.878;2023-05-27T05:51:01;12.30;99.90
15083;DHT22;7640;53.116;6.878;2023-05-27T05:53:30;12.30;99.90
15083;DHT22;7640;53.116;6.878;2023-05-27T05:55:58;12.40;99.90
15083;DHT22;7640;53.116;6.878;2023-05-27T05:58:27;12.40;99.90
15083;DHT22;7640;53.116;6.878;2023-05-27T06:00:56;12.40;99.90
15083;DHT22;7640;53.116;6.878;2023-05-27T06:03:25;12.40;99.90
15083;DHT22;7640;53.116;6.878;2023-05-27T06:05:55;12.40;99.90
15083;DHT22;7640;53.116;6.878;2023-05-27T06:08:24;12.40;99.90
15083;DHT22;7640;53.116;6.878;2023-05-27T06:10:52;12.40;99.90
15083;DHT22;7640;53.116;6.878;2023-05-27T06:13:21;12.50;99.90
15083;DHT22;7640;53.116;6.878;2023-05-27T06:15:50;12.60;99.90
15083;DHT22;7640;53.116;6.878;2023-05-27T06:18:18;12.70;99.90
15083;DHT22;7640;53.116;6.878;2023-05-27T06:20:47;12.80;99.90
15083;DHT22;7640;53.116;6.878;2023-05-27T06:23:17;12.90;99.90
15083;DHT22;7640;53.116;6.878;2023-05-27T06:25:46;12.90;99.90
15083;DHT22;7640;53.116;6.878;2023-05-27T06:28:15;12.90;99.90
15083;DHT22;7640;53.116;6.878;2023-05-27T06:30:43;12.90;99.90
15083;DHT22;7640;53.116;6.878;2023-05-27T06:33:12;12.90;99.90
15083;DHT22;7640;53.116;6.878;2023-05-27T06:35:40;12.90;99.90
15083;DHT22;7640;53.116;6.878;2023-05-27T06:38:11;12.90;99.90
15083;DHT22;7640;53.116;6.878;2023-05-27T06:40:41;12.90;99.90
15083;DHT22;7640;53.116;6.878;2023-05-27T06:43:10;12.90;99.90
15083;DHT22;7640;53.116;6.878;2023-05-27T06:45:38;12.90;99.90
15083;DHT22;7640;53.116;6.878;2023-05-27T06:48:27;13.00;99.90
15083;DHT22;7640;53.116;6.878;2023-05-27T06:50:56;13.10;99.90
15083;DHT22;7640;53.116;6.878;2023-05-27T06:53:24;13.20;99.90
15083;DHT22;7640;53.116;6.878;2023-05-27T06:55:55;13.40;99.90
15083;DHT22;7640;53.116;6.878;2023-05-27T06:58:24;13.50;99.90
15083;DHT22;7640;53.116;6.878;2023-05-27T07:00:53;13.70;99.90
15083;DHT22;7640;53.116;6.878;2023-05-27T07:03:21;13.80;99.90
15083;DHT22;7640;53.116;6.878;2023-05-27T07:05:50;14.00;99.90
15083;DHT22;7640;53.116;6.878;2023-05-27T07:08:19;14.10;99.90
15083;DHT22;7640;53.116;6.878;2023-05-27T07:10:48;14.30;99.90
15083;DHT22;7640;53.116;6.878;2023-05-27T07:13:18;14.40;99.90
15083;DHT22;7640;53.116;6.878;2023-05-27T07:15:47;14.50;99.90
15083;DHT22;7640;53.116;6.878;2023-05-27T07:18:16;14.60;99.90
15083;DHT22;7640;53.116;6.878;2023-05-27T07:20:45;14.70;99.90
15083;DHT22;7640;53.116;6.878;2023-05-27T07:23:13;14.90;99.90
15083;DHT22;7640;53.116;6.878;2023-05-27T07:25:42;15.10;99.90
15083;DHT22;7640;53.116;6.878;2023-05-27T07:28:11;15.20;99.90
15083;DHT22;7640;53.116;6.878;2023-05-27T07:30:41;15.30;99.90
15083;DHT22;7640;53.116;6.878;2023-05-27T07:33:10;15.40;99.90
15083;DHT22;7640;53.116;6.878;2023-05-27T07:35:39;15.60;99.90
15083;DHT22;7640;53.116;6.878;2023-05-27T07:38:07;15.70;99.90
15083;DHT22;7640;53.116;6.878;2023-05-27T07:40:36;15.80;99.90
15083;DHT22;7640;53.116;6.878;2023-05-27T07:43:05;15.90;99.90
15083;DHT22;7640;53.116;6.878;2023-05-27T07:45:33;16.00;99.90
15083;DHT22;7640;53.116;6.878;2023-05-27T07:48:03;16.10;99.90
15083;DHT22;7640;53.116;6.878;2023-05-27T07:50:32;16.20;99.90
15083;DHT22;7640;53.116;6.878;2023-05-27T07:53:00;16.30;99.90
15083;DHT22;7640;53.116;6.878;2023-05-27T07:55:29;16.40;99.90
15083;DHT22;7640;53.116;6.878;2023-05-27T07:57:58;16.50;99.90
15083;DHT22;7640;53.116;6.878;2023-05-27T08:00:26;16.50;99.90
15083;DHT22;7640;53.116;6.878;2023-05-27T08:02:56;16.60;99.90
15083;DHT22;7640;53.116;6.878;2023-05-27T08:05:26;16.60;99.90
15083;DHT22;7640;53.116;6.878;2023-05-27T08:07:55;16.80;99.90
15083;DHT22;7640;53.116;6.878;2023-05-27T08:10:24;16.90;99.90
15083;DHT22;7640;53.116;6.878;2023-05-27T08:12:52;17.00;99.90
15083;DHT22;7640;53.116;6.878;2023-05-27T08:15:21;17.00;99.90
15083;DHT22;7640;53.116;6.878;2023-05-27T08:17:50;17.10;99.90
15083;DHT22;7640;53.116;6.878;2023-05-27T08:20:18;17.30;99.90
15083;DHT22;7640;53.116;6.878;2023-05-27T08:22:48;17.40;99.90
15083;DHT22;7640;53.116;6.878;2023-05-27T08:25:17;17.50;99.90
15083;DHT22;7640;53.116;6.878;2023-05-27T08:27:48;17.70;99.90
15083;DHT22;7640;53.116;6.878;2023-05-27T08:30:17;17.80;99.90
15083;DHT22;7640;53.116;6.878;2023-05-27T08:32:46;17.90;99.90
15083;DHT22;7640;53.116;6.878;2023-05-27T08:35:18;18.00;99.90
15083;DHT22;7640;53.116;6.878;2023-05-27T08:37:48;18.10;99.90
15083;DHT22;7640;53.116;6.878;2023-05-27T08:40:18;18.20;99.90
15083;DHT22;7640;53.116;6.878;2023-05-27T08:42:52;18.40;99.90
15083;DHT22;7640;53.116;6.878;2023-05-27T08:45:21;18.50;99.90
15083;DHT22;7640;53.116;6.878;2023-05-27T08:47:50;18.50;99.90
15083;DHT22;7640;53.116;6.878;2023-05-27T08:50:20;18.60;99.90
15083;DHT22;7640;53.116;6.878;2023-05-27T08:52:53;18.70;99.90
15083;DHT22;7640;53.116;6.878;2023-05-27T08:55:22;18.80;99.90
15083;DHT22;7640;53.116;6.878;2023-05-27T08:57:54;18.90;99.90
15083;DHT22;7640;53.116;6.878;2023-05-27T09:00:25;19.00;99.90
15083;DHT22;7640;53.116;6.878;2023-05-27T09:02:54;19.10;99.90
15083;DHT22;7640;53.116;6.878;2023-05-27T09:05:23;19.30;99.90
15083;DHT22;7640;53.116;6.878;2023-05-27T09:07:54;19.30;99.90
15083;DHT22;7640;53.116;6.878;2023-05-27T09:10:23;19.50;99.90
15083;DHT22;7640;53.116;6.878;2023-05-27T09:12:51;19.60;99.90
15083;DHT22;7640;53.116;6.878;2023-05-27T09:15:23;19.60;99.90
15083;DHT22;7640;53.116;6.878;2023-05-27T09:17:53;19.70;99.90
15083;DHT22;7640;53.116;6.878;2023-05-27T09:20:28;19.80;99.90
15083;DHT22;7640;53.116;6.878;2023-05-27T09:22:59;19.90;99.90
15083;DHT22;7640;53.116;6.878;2023-05-27T09:25:29;19.90;99.90
15083;DHT22;7640;53.116;6.878;2023-05-27T09:27:58;20.00;99.90
15083;DHT22;7640;53.116;6.878;2023-05-27T09:30:27;20.20;99.90
15083;DHT22;7640;53.116;6.878;2023-05-27T09:33:01;20.30;99.90
15083;DHT22;7640;53.116;6.878;2023-05-27T09:35:37;20.40;99.90
15083;DHT22;7640;53.116;6.878;2023-05-27T09:38:09;20.50;99.90
15083;DHT22;7640;53.116;6.878;2023-05-27T09:40:37;20.60;99.90
15083;DHT22;7640;53.116;6.878;2023-05-27T09:43:07;20.70;99.90
15083;DHT22;7640;53.116;6.878;2023-05-27T09:45:41;20.80;99.90
15083;DHT22;7640;53.116;6.878;2023-05-27T09:48:12;21.00;99.90
15083;DHT22;7640;53.116;6.878;2023-05-27T09:50:42;21.00;99.90
15083;DHT22;7640;53.116;6.878;2023-05-27T09:53:12;21.20;99.90
15083;DHT22;7640;53.116;6.878;2023-05-27T09:55:41;21.30;99.90
15083;DHT22;7640;53.116;6.878;2023-05-27T09:58:11;21.40;99.90
15083;DHT22;7640;53.116;6.878;2023-05-27T10:00:41;21.50;99.90
15083;DHT22;7640;53.116;6.878;2023-05-27T10:03:12;21.60;99.90
15083;DHT22;7640;53.116;6.878;2023-05-27T10:05:44;21.70;99.90
15083;DHT22;7640;53.116;6.878;2023-05-27T10:08:15;21.80;99.90
15083;DHT22;7640;53.116;6.878;2023-05-27T10:10:52;21.80;99.90
15083;DHT22;7640;53.116;6.878;2023-05-27T10:13:23;21.90;99.90
15083;DHT22;7640;53.116;6.878;2023-05-27T10:15:52;22.00;99.90
15083;DHT22;7640;53.116;6.878;2023-05-27T10:18:25;22.10;99.90
15083;DHT22;7640;53.116;6.878;2023-05-27T10:20:56;22.10;99.90
15083;DHT22;7640;53.116;6.878;2023-05-27T10:23:28;22.20;99.90
15083;DHT22;7640;53.116;6.878;2023-05-27T10:26:01;22.20;99.90
15083;DHT22;7640;53.116;6.878;2023-05-27T10:28:34;22.30;99.90
15083;DHT22;7640;53.116;6.878;2023-05-27T10:31:05;22.40;99.90
15083;DHT22;7640;53.116;6.878;2023-05-27T10:33:35;22.40;99.90
15083;DHT22;7640;53.116;6.878;2023-05-27T10:36:08;22.50;99.90
15083;DHT22;7640;53.116;6.878;2023-05-27T10:38:41;22.60;99.90
15083;DHT22;7640;53.116;6.878;2023-05-27T10:41:10;22.80;99.90
15083;DHT22;7640;53.116;6.878;2023-05-27T10:43:39;22.90;99.90
15083;DHT22;7640;53.116;6.878;2023-05-27T10:46:11;23.00;99.90
15083;DHT22;7640;53.116;6.878;2023-05-27T10:48:40;23.00;99.90
15083;DHT22;7640;53.116;6.878;2023-05-27T10:51:09;23.10;99.90
15083;DHT22;7640;53.116;6.878;2023-05-27T10:53:39;23.10;99.90
15083;DHT22;7640;53.116;6.878;2023-05-27T10:56:08;23.20;99.90
15083;DHT22;7640;53.116;6.878;2023-05-27T10:58:38;23.30;99.90
15083;DHT22;7640;53.116;6.878;2023-05-27T11:01:10;23.40;99.90
15083;DHT22;7640;53.116;6.878;2023-05-27T11:03:43;23.50;99.90
15083;DHT22;7640;53.116;6.878;2023-05-27T11:06:13;23.60;99.90
15083;DHT22;7640;53.116;6.878;2023-05-27T11:08:45;23.70;99.90
15083;DHT22;7640;53.116;6.878;2023-05-27T11:11:13;23.70;99.90
15083;DHT22;7640;53.116;6.878;2023-05-27T11:13:44;23.70;99.90
15083;DHT22;7640;53.116;6.878;2023-05-27T11:16:15;23.80;99.90
15083;DHT22;7640;53.116;6.878;2023-05-27T11:18:45;23.80;99.90
15083;DHT22;7640;53.116;6.878;2023-05-27T11:21:15;23.90;99.90
15083;DHT22;7640;53.116;6.878;2023-05-27T11:23:48;24.00;99.90
15083;DHT22;7640;53.116;6.878;2023-05-27T11:26:18;24.20;99.90
15083;DHT22;7640;53.116;6.878;2023-05-27T11:28:49;24.30;99.90
15083;DHT22;7640;53.116;6.878;2023-05-27T11:31:20;24.60;99.90
15083;DHT22;7640;53.116;6.878;2023-05-27T11:33:50;24.70;99.60
15083;DHT22;7640;53.116;6.878;2023-05-27T11:36:19;24.90;99.30
15083;DHT22;7640;53.116;6.878;2023-05-27T11:38:51;25.00;99.10
15083;DHT22;7640;53.116;6.878;2023-05-27T11:41:22;25.00;99.10
15083;DHT22;7640;53.116;6.878;2023-05-27T11:43:55;25.10;98.70
15083;DHT22;7640;53.116;6.878;2023-05-27T11:46:34;25.30;98.70
15083;DHT22;7640;53.116;6.878;2023-05-27T11:49:03;25.50;98.50
15083;DHT22;7640;53.116;6.878;2023-05-27T11:51:34;25.60;98.30
15083;DHT22;7640;53.116;6.878;2023-05-27T11:54:05;25.90;97.20
15083;DHT22;7640;53.116;6.878;2023-05-27T11:56:34;26.10;97.20
15083;DHT22;7640;53.116;6.878;2023-05-27T11:59:02;26.30;96.90
15083;DHT22;7640;53.116;6.878;2023-05-27T12:01:30;26.60;95.90
15083;DHT22;7640;53.116;6.878;2023-05-27T12:03:59;26.70;95.90
15083;DHT22;7640;53.116;6.878;2023-05-27T12:06:29;26.90;96.00
15083;DHT22;7640;53.116;6.878;2023-05-27T12:08:58;27.10;95.50
15083;DHT22;7640;53.116;6.878;2023-05-27T12:11:28;27.30;95.50
15083;DHT22;7640;53.116;6.878;2023-05-27T12:13:57;27.70;95.10
15083;DHT22;7640;53.116;6.878;2023-05-27T12:16:26;27.90;95.10
15083;DHT22;7640;53.116;6.878;2023-05-27T12:18:55;28.10;94.90
15083;DHT22;7640;53.116;6.878;2023-05-27T12:21:25;28.30;94.50
15083;DHT22;7640;53.116;6.878;2023-05-27T12:23:55;28.40;93.90
15083;DHT22;7640;53.116;6.878;2023-05-27T12:26:23;28.50;92.70
15083;DHT22;7640;53.116;6.878;2023-05-27T12:28:54;28.60;92.50
15083;DHT22;7640;53.116;6.878;2023-05-27T12:31:23;28.70;92.40
15083;DHT22;7640;53.116;6.878;2023-05-27T12:33:52;28.90;92.40
15083;DHT22;7640;53.116;6.878;2023-05-27T12:36:21;29.20;92.00
15083;DHT22;7640;53.116;6.878;2023-05-27T12:38:49;29.40;90.80
15083;DHT22;7640;53.116;6.878;2023-05-27T12:41:18;29.50;90.60
15083;DHT22;7640;53.116;6.878;2023-05-27T12:43:46;29.60;90.30
15083;DHT22;7640;53.116;6.878;2023-05-27T12:46:16;29.80;90.30
15083;DHT22;7640;53.116;6.878;2023-05-27T12:48:45;29.90;89.60
15083;DHT22;7640;53.116;6.878;2023-05-27T12:51:13;30.10;89.40
15083;DHT22;7640;53.116;6.878;2023-05-27T12:53:42;30.30;87.90
15083;DHT22;7640;53.116;6.878;2023-05-27T12:56:11;30.40;88.50
15083;DHT22;7640;53.116;6.878;2023-05-27T12:58:39;30.70;87.70
15083;DHT22;7640;53.116;6.878;2023-05-27T13:01:08;30.90;86.60
15083;DHT22;7640;53.116;6.878;2023-05-27T13:03:38;31.00;86.80
15083;DHT22;7640;53.116;6.878;2023-05-27T13:06:08;31.10;85.00
15083;DHT22;7640;53.116;6.878;2023-05-27T13:08:36;31.20;83.50
15083;DHT22;7640;53.116;6.878;2023-05-27T13:11:05;31.20;84.00
15083;DHT22;7640;53.116;6.878;2023-05-27T13:13:34;31.30;83.10
15083;DHT22;7640;53.116;6.878;2023-05-27T13:16:03;31.50;84.10
15083;DHT22;7640;53.116;6.878;2023-05-27T13:18:32;31.80;84.10
15083;DHT22;7640;53.116;6.878;2023-05-27T13:21:02;32.10;82.90
15083;DHT22;7640;53.116;6.878;2023-05-27T13:23:30;32.40;82.40
15083;DHT22;7640;53.116;6.878;2023-05-27T13:25:59;32.60;81.50
15083;DHT22;7640;53.116;6.878;2023-05-27T13:28:28;32.80;80.50
15083;DHT22;7640;53.116;6.878;2023-05-27T13:30:56;33.00;79.00
15083;DHT22;7640;53.116;6.878;2023-05-27T13:33:25;33.30;76.80
15083;DHT22;7640;53.116;6.878;2023-05-27T13:35:53;33.50;76.30
15083;DHT22;7640;53.116;6.878;2023-05-27T13:38:23;33.70;77.10
15083;DHT22;7640;53.116;6.878;2023-05-27T13:40:52;33.80;76.10
15083;DHT22;7640;53.116;6.878;2023-05-27T13:43:21;33.80;76.20
15083;DHT22;7640;53.116;6.878;2023-05-27T13:45:49;33.90;73.80
15083;DHT22;7640;53.116;6.878;2023-05-27T13:48:18;33.90;72.60
15083;DHT22;7640;53.116;6.878;2023-05-27T13:50:48;33.90;73.90
15083;DHT22;7640;53.116;6.878;2023-05-27T13:53:17;34.00;73.10
15083;DHT22;7640;53.116;6.878;2023-05-27T13:55:47;34.10;72.80
15083;DHT22;7640;53.116;6.878;2023-05-27T13:58:16;34.30;72.90
15083;DHT22;7640;53.116;6.878;2023-05-27T14:00:45;34.50;72.60
15083;DHT22;7640;53.116;6.878;2023-05-27T14:03:14;34.60;72.00
15083;DHT22;7640;53.116;6.878;2023-05-27T14:05:42;34.80;70.70
15083;DHT22;7640;53.116;6.878;2023-05-27T14:08:11;35.00;70.20
15083;DHT22;7640;53.116;6.878;2023-05-27T14:10:40;35.30;71.90
15083;DHT22;7640;53.116;6.878;2023-05-27T14:13:10;35.60;70.30
15083;DHT22;7640;53.116;6.878;2023-05-27T14:15:38;35.70;69.30
15083;DHT22;7640;53.116;6.878;2023-05-27T14:18:07;35.80;68.20
15083;DHT22;7640;53.116;6.878;2023-05-27T14:20:36;35.80;68.00
15083;DHT22;7640;53.116;6.878;2023-05-27T14:23:04;35.90;68.40
15083;DHT22;7640;53.116;6.878;2023-05-27T14:25:37;36.10;68.50
15083;DHT22;7640;53.116;6.878;2023-05-27T14:28:06;36.30;68.00
15083;DHT22;7640;53.116;6.878;2023-05-27T14:30:36;36.50;69.00
15083;DHT22;7640;53.116;6.878;2023-05-27T14:33:04;36.70;67.00
15083;DHT22;7640;53.116;6.878;2023-05-27T14:35:34;36.90;66.90
15083;DHT22;7640;53.116;6.878;2023-05-27T14:38:03;37.00;65.30
15083;DHT22;7640;53.116;6.878;2023-05-27T14:40:33;37.20;65.20
15083;DHT22;7640;53.116;6.878;2023-05-27T14:43:01;37.40;64.70
15083;DHT22;7640;53.116;6.878;2023-05-27T14:45:30;37.50;64.00
15083;DHT22;7640;53.116;6.878;2023-05-27T14:48:01;37.70;64.20
15083;DHT22;7640;53.116;6.878;2023-05-27T14:50:30;37.60;65.90
15083;DHT22;7640;53.116;6.878;2023-05-27T14:52:59;37.40;65.90
15083;DHT22;7640;53.116;6.878;2023-05-27T14:55:27;37.30;65.20
15083;DHT22;7640;53.116;6.878;2023-05-27T14:57:56;37.10;67.20
15083;DHT22;7640;53.116;6.878;2023-05-27T15:00:25;37.20;66.60
15083;DHT22;7640;53.116;6.878;2023-05-27T15:02:54;37.10;65.90
15083;DHT22;7640;53.116;6.878;2023-05-27T15:05:24;37.10;65.00
15083;DHT22;7640;53.116;6.878;2023-05-27T15:07:53;37.10;66.10
15083;DHT22;7640;53.116;6.878;2023-05-27T15:10:22;37.00;67.30
15083;DHT22;7640;53.116;6.878;2023-05-27T15:12:51;37.00;66.30
15083;DHT22;7640;53.116;6.878;2023-05-27T15:15:20;37.10;66.00
15083;DHT22;7640;53.116;6.878;2023-05-27T15:17:49;37.20;66.10
15083;DHT22;7640;53.116;6.878;2023-05-27T15:20:18;37.40;65.30
15083;DHT22;7640;53.116;6.878;2023-05-27T15:22:48;37.50;65.20
15083;DHT22;7640;53.116;6.878;2023-05-27T15:25:17;37.50;64.60
15083;DHT22;7640;53.116;6.878;2023-05-27T15:27:46;37.40;64.80
15083;DHT22;7640;53.116;6.878;2023-05-27T15:30:15;37.40;65.00
15083;DHT22;7640;53.116;6.878;2023-05-27T15:32:45;37.30;65.00
15083;DHT22;7640;53.116;6.878;2023-05-27T15:35:14;37.20;65.00
15083;DHT22;7640;53.116;6.878;2023-05-27T15:37:42;37.20;64.60
15083;DHT22;7640;53.116;6.878;2023-05-27T15:40:13;37.20;65.00
15083;DHT22;7640;53.116;6.878;2023-05-27T15:42:43;37.20;65.30
15083;DHT22;7640;53.116;6.878;2023-05-27T15:45:12;37.30;65.20
15083;DHT22;7640;53.116;6.878;2023-05-27T15:47:42;37.40;65.00
15083;DHT22;7640;53.116;6.878;2023-05-27T15:50:11;37.50;64.60
15083;DHT22;7640;53.116;6.878;2023-05-27T15:52:39;37.60;64.60
15083;DHT22;7640;53.116;6.878;2023-05-27T15:55:09;37.70;64.30
15083;DHT22;7640;53.116;6.878;2023-05-27T15:57:39;37.60;65.10
15083;DHT22;7640;53.116;6.878;2023-05-27T16:00:09;37.60;64.20
15083;DHT22;7640;53.116;6.878;2023-05-27T16:02:38;37.50;63.30
15083;DHT22;7640;53.116;6.878;2023-05-27T16:05:08;37.50;64.10